sensor_id;sensor_type;location;lat;lon;timestamp;P1;durP1;ratioP1;P2;durP2;ratioP2
21806;SDS011;11065;50.786;7.840;2023-07-30T00:02:03;2.30;;;1.70;;
21806;SDS011;11065;50.786;7.840;2023-07-30T00:04:31;3.03;;;1.90;;
21806;SDS011;11065;50.786;7.840;2023-07-30T00:06:59;2.87;;;2.10;;
21806;SDS011;11065;50.786;7.840;2023-07-30T00:09:27;4.80;;;1.90;;
21806;SDS011;11065;50.786;7.840;2023-07-30T00:11:54;4.57;;;2.37;;
21806;SDS011;11065;50.786;7.840;2023-07-30T00:14:22;4.20;;;2.40;;
21806;SDS011;11065;50.786;7.840;2023-07-30T00:16:50;4.73;;;2.53;;
21806;SDS011;11065;50.786;7.840;2023-07-30T00:19:20;3.07;;;2.20;;
21806;SDS011;11065;50.786;7.840;2023-07-30T00:21:48;3.77;;;2.07;;
21806;SDS011;11065;50.786;7.840;2023-07-30T00:24:15;3.20;;;2.00;;
21806;SDS011;11065;50.786;7.840;2023-07-30T00:26:43;2.83;;;2.20;;
21806;SDS011;11065;50.786;7.840;2023-07-30T00:29:11;3.17;;;2.27;;
21806;SDS011;11065;50.786;7.840;2023-07-30T00:31:39;2.80;;;1.73;;
21806;SDS011;11065;50.786;7.840;2023-07-30T00:34:08;5.50;;;2.30;;
21806;SDS011;11065;50.786;7.840;2023-07-30T00:36:37;13.63;;;2.40;;
21806;SDS011;11065;50.786;7.840;2023-07-30T00:39:05;9.83;;;2.17;;
21806;SDS011;11065;50.786;7.840;2023-07-30T00:41:33;13.13;;;2.37;;
21806;SDS011;11065;50.786;7.840;2023-07-30T00:44:01;5.07;;;2.20;;
21806;SDS011;11065;50.786;7.840;2023-07-30T00:46:30;9.10;;;2.13;;
21806;SDS011;11065;50.786;7.840;2023-07-30T00:48:58;8.33;;;2.60;;
21806;SDS011;11065;50.786;7.840;2023-07-30T00:51:26;6.03;;;2.27;;
21806;SDS011;11065;50.786;7.840;2023-07-30T00:53:58;3.30;;;1.83;;
21806;SDS011;11065;50.786;7.840;2023-07-30T00:56:26;5.53;;;2.13;;
21806;SDS011;11065;50.786;7.840;2023-07-30T00:58:55;6.47;;;2.10;;
21806;SDS011;11065;50.786;7.840;2023-07-30T01:01:23;5.97;;;1.80;;
21806;SDS011;11065;50.786;7.840;2023-07-30T01:03:51;3.30;;;1.73;;
21806;SDS011;11065;50.786;7.840;2023-07-30T01:06:20;5.67;;;1.90;;
21806;SDS011;11065;50.786;7.840;2023-07-30T01:08:49;5.47;;;2.40;;
21806;SDS011;11065;50.786;7.840;2023-07-30T01:11:19;5.77;;;2.17;;
21806;SDS011;11065;50.786;7.840;2023-07-30T01:13:47;4.47;;;2.17;;
21806;SDS011;11065;50.786;7.840;2023-07-30T01:16:16;4.77;;;2.40;;
21806;SDS011;11065;50.786;7.840;2023-07-30T01:18:44;4.03;;;2.10;;
21806;SDS011;11065;50.786;7.840;2023-07-30T01:21:14;5.37;;;1.80;;
21806;SDS011;11065;50.786;7.840;2023-07-30T01:23:42;3.40;;;1.83;;
21806;SDS011;11065;50.786;7.840;2023-07-30T01:26:10;2.80;;;1.77;;
21806;SDS011;11065;50.786;7.840;2023-07-30T01:28:42;2.80;;;1.37;;
21806;SDS011;11065;50.786;7.840;2023-07-30T01:31:14;4.53;;;1.73;;
21806;SDS011;11065;50.786;7.840;2023-07-30T01:33:43;3.70;;;2.00;;
21806;SDS011;11065;50.786;7.840;2023-07-30T01:36:17;3.30;;;2.07;;
21806;SDS011;11065;50.786;7.840;2023-07-30T01:38:46;4.93;;;2.20;;
21806;SDS011;11065;50.786;7.840;2023-07-30T01:41:15;4.20;;;2.10;;
21806;SDS011;11065;50.786;7.840;2023-07-30T01:43:43;3.40;;;2.13;;
21806;SDS011;11065;50.786;7.840;2023-07-30T01:46:11;9.60;;;2.40;;
21806;SDS011;11065;50.786;7.840;2023-07-30T01:48:39;6.67;;;2.07;;
21806;SDS011;11065;50.786;7.840;2023-07-30T01:51:07;3.93;;;2.20;;
21806;SDS011;11065;50.786;7.840;2023-07-30T01:53:36;3.37;;;1.93;;
21806;SDS011;11065;50.786;7.840;2023-07-30T01:56:04;4.03;;;1.90;;
21806;SDS011;11065;50.786;7.840;2023-07-30T01:58:32;6.23;;;2.30;;
21806;SDS011;11065;50.786;7.840;2023-07-30T02:01:00;4.43;;;2.00;;
21806;SDS011;11065;50.786;7.840;2023-07-30T02:03:28;3.00;;;1.90;;
21806;SDS011;11065;50.786;7.840;2023-07-30T02:05:56;5.67;;;2.33;;
21806;SDS011;11065;50.786;7.840;2023-07-30T02:08:24;2.93;;;2.03;;
21806;SDS011;11065;50.786;7.840;2023-07-30T02:10:57;4.37;;;1.63;;
21806;SDS011;11065;50.786;7.840;2023-07-30T02:13:25;3.20;;;2.03;;
21806;SDS011;11065;50.786;7.840;2023-07-30T02:15:53;4.77;;;2.07;;
21806;SDS011;11065;50.786;7.840;2023-07-30T02:18:21;12.80;;;1.83;;
21806;SDS011;11065;50.786;7.840;2023-07-30T02:20:49;6.53;;;1.20;;
21806;SDS011;11065;50.786;7.840;2023-07-30T02:23:17;9.63;;;1.93;;
21806;SDS011;11065;50.786;7.840;2023-07-30T02:25:45;3.23;;;1.47;;
21806;SDS011;11065;50.786;7.840;2023-07-30T02:28:14;4.87;;;1.90;;
21806;SDS011;11065;50.786;7.840;2023-07-30T02:30:42;5.90;;;1.73;;
21806;SDS011;11065;50.786;7.840;2023-07-30T02:33:10;2.30;;;1.70;;
21806;SDS011;11065;50.786;7.840;2023-07-30T02:35:38;3.27;;;1.73;;
21806;SDS011;11065;50.786;7.840;2023-07-30T02:38:06;2.77;;;1.90;;
21806;SDS011;11065;50.786;7.840;2023-07-30T02:40:34;3.87;;;1.50;;
21806;SDS011;11065;50.786;7.840;2023-07-30T02:43:02;4.10;;;1.80;;
21806;SDS011;11065;50.786;7.840;2023-07-30T02:45:31;6.10;;;1.77;;
21806;SDS011;11065;50.786;7.840;2023-07-30T02:47:59;7.20;;;1.70;;
21806;SDS011;11065;50.786;7.840;2023-07-30T02:50:27;5.50;;;1.60;;
21806;SDS011;11065;50.786;7.840;2023-07-30T02:52:55;2.77;;;1.80;;
21806;SDS011;11065;50.786;7.840;2023-07-30T02:55:23;2.40;;;1.87;;
21806;SDS011;11065;50.786;7.840;2023-07-30T02:57:51;2.90;;;1.53;;
21806;SDS011;11065;50.786;7.840;2023-07-30T03:00:19;2.43;;;1.90;;
21806;SDS011;11065;50.786;7.840;2023-07-30T03:02:49;2.27;;;1.83;;
21806;SDS011;11065;50.786;7.840;2023-07-30T03:05:17;2.37;;;1.70;;
21806;SDS011;11065;50.786;7.840;2023-07-30T03:07:45;2.73;;;1.87;;
21806;SDS011;11065;50.786;7.840;2023-07-30T03:10:13;4.07;;;1.77;;
21806;SDS011;11065;50.786;7.840;2023-07-30T03:12:42;3.80;;;2.13;;
21806;SDS011;11065;50.786;7.840;2023-07-30T03:15:10;2.70;;;1.73;;
21806;SDS011;11065;50.786;7.840;2023-07-30T03:17:38;3.43;;;2.10;;
21806;SDS011;11065;50.786;7.840;2023-07-30T03:20:08;2.00;;;1.60;;
21806;SDS011;11065;50.786;7.840;2023-07-30T03:22:37;1.90;;;1.50;;
21806;SDS011;11065;50.786;7.840;2023-07-30T03:25:05;2.17;;;1.47;;
21806;SDS011;11065;50.786;7.840;2023-07-30T03:27:34;1.40;;;1.30;;
21806;SDS011;11065;50.786;7.840;2023-07-30T03:30:02;1.97;;;1.43;;
21806;SDS011;11065;50.786;7.840;2023-07-30T03:32:31;2.27;;;1.47;;
21806;SDS011;11065;50.786;7.840;2023-07-30T03:34:59;1.97;;;1.37;;
21806;SDS011;11065;50.786;7.840;2023-07-30T03:37:28;3.63;;;1.47;;
21806;SDS011;11065;50.786;7.840;2023-07-30T03:39:57;1.53;;;1.30;;
21806;SDS011;11065;50.786;7.840;2023-07-30T03:42:25;1.40;;;1.20;;
21806;SDS011;11065;50.786;7.840;2023-07-30T03:44:53;2.00;;;1.47;;
21806;SDS011;11065;50.786;7.840;2023-07-30T03:47:21;1.80;;;1.40;;
21806;SDS011;11065;50.786;7.840;2023-07-30T03:49:49;5.23;;;1.40;;
21806;SDS011;11065;50.786;7.840;2023-07-30T03:52:17;2.97;;;1.17;;
21806;SDS011;11065;50.786;7.840;2023-07-30T03:54:46;1.73;;;1.20;;
21806;SDS011;11065;50.786;7.840;2023-07-30T03:57:14;2.13;;;1.13;;
21806;SDS011;11065;50.786;7.840;2023-07-30T03:59:42;1.57;;;1.30;;
21806;SDS011;11065;50.786;7.840;2023-07-30T04:02:10;2.17;;;1.20;;
21806;SDS011;11065;50.786;7.840;2023-07-30T04:04:41;2.10;;;1.00;;
21806;SDS011;11065;50.786;7.840;2023-07-30T04:07:10;2.33;;;1.00;;
21806;SDS011;11065;50.786;7.840;2023-07-30T04:09:38;2.67;;;1.13;;
21806;SDS011;11065;50.786;7.840;2023-07-30T04:12:08;2.17;;;1.20;;
21806;SDS011;11065;50.786;7.840;2023-07-30T04:14:36;1.87;;;1.30;;
21806;SDS011;11065;50.786;7.840;2023-07-30T04:17:04;1.27;;;1.07;;
21806;SDS011;11065;50.786;7.840;2023-07-30T04:19:32;2.70;;;1.37;;
21806;SDS011;11065;50.786;7.840;2023-07-30T04:22:00;2.37;;;1.70;;
21806;SDS011;11065;50.786;7.840;2023-07-30T04:24:28;4.03;;;1.60;;
21806;SDS011;11065;50.786;7.840;2023-07-30T04:26:56;1.90;;;1.50;;
21806;SDS011;11065;50.786;7.840;2023-07-30T04:29:25;3.30;;;1.37;;
21806;SDS011;11065;50.786;7.840;2023-07-30T04:31:53;4.17;;;1.53;;
21806;SDS011;11065;50.786;7.840;2023-07-30T04:34:21;5.03;;;2.03;;
21806;SDS011;11065;50.786;7.840;2023-07-30T04:36:49;1.97;;;1.30;;
21806;SDS011;11065;50.786;7.840;2023-07-30T04:39:18;3.47;;;1.37;;
21806;SDS011;11065;50.786;7.840;2023-07-30T04:41:46;2.93;;;1.33;;
21806;SDS011;11065;50.786;7.840;2023-07-30T04:44:14;1.80;;;1.30;;
21806;SDS011;11065;50.786;7.840;2023-07-30T04:46:43;1.60;;;1.20;;
21806;SDS011;11065;50.786;7.840;2023-07-30T04:49:11;2.33;;;1.37;;
21806;SDS011;11065;50.786;7.840;2023-07-30T04:51:40;3.33;;;1.43;;
21806;SDS011;11065;50.786;7.840;2023-07-30T04:54:08;2.33;;;1.20;;
21806;SDS011;11065;50.786;7.840;2023-07-30T04:56:36;3.00;;;1.30;;
21806;SDS011;11065;50.786;7.840;2023-07-30T04:59:04;1.73;;;1.13;;
21806;SDS011;11065;50.786;7.840;2023-07-30T05:01:32;2.27;;;1.30;;
21806;SDS011;11065;50.786;7.840;2023-07-30T05:04:02;2.43;;;1.07;;
21806;SDS011;11065;50.786;7.840;2023-07-30T05:06:30;3.43;;;1.27;;
21806;SDS011;11065;50.786;7.840;2023-07-30T05:08:59;3.70;;;1.40;;
21806;SDS011;11065;50.786;7.840;2023-07-30T05:11:26;1.70;;;1.30;;
21806;SDS011;11065;50.786;7.840;2023-07-30T05:13:54;5.17;;;1.53;;
21806;SDS011;11065;50.786;7.840;2023-07-30T05:16:22;1.60;;;1.20;;
21806;SDS011;11065;50.786;7.840;2023-07-30T05:18:50;2.90;;;1.30;;
21806;SDS011;11065;50.786;7.840;2023-07-30T05:21:19;2.97;;;1.53;;
21806;SDS011;11065;50.786;7.840;2023-07-30T05:23:48;2.07;;;1.30;;
21806;SDS011;11065;50.786;7.840;2023-07-30T05:26:15;2.50;;;1.20;;
21806;SDS011;11065;50.786;7.840;2023-07-30T05:28:43;3.57;;;1.10;;
21806;SDS011;11065;50.786;7.840;2023-07-30T05:31:11;1.90;;;1.30;;
21806;SDS011;11065;50.786;7.840;2023-07-30T05:33:39;1.87;;;1.30;;
21806;SDS011;11065;50.786;7.840;2023-07-30T05:36:07;4.23;;;1.27;;
21806;SDS011;11065;50.786;7.840;2023-07-30T05:38:37;1.57;;;1.10;;
21806;SDS011;11065;50.786;7.840;2023-07-30T05:41:04;4.40;;;1.30;;
21806;SDS011;11065;50.786;7.840;2023-07-30T05:43:32;3.53;;;1.50;;
21806;SDS011;11065;50.786;7.840;2023-07-30T05:46:00;3.87;;;1.53;;
21806;SDS011;11065;50.786;7.840;2023-07-30T05:48:28;2.97;;;1.40;;
21806;SDS011;11065;50.786;7.840;2023-07-30T05:50:56;2.20;;;1.30;;
21806;SDS011;11065;50.786;7.840;2023-07-30T05:53:24;4.60;;;1.67;;
21806;SDS011;11065;50.786;7.840;2023-07-30T05:55:54;2.80;;;1.30;;
21806;SDS011;11065;50.786;7.840;2023-07-30T05:58:22;2.23;;;1.40;;
21806;SDS011;11065;50.786;7.840;2023-07-30T06:00:50;4.63;;;1.60;;
21806;SDS011;11065;50.786;7.840;2023-07-30T06:03:18;3.40;;;1.57;;
21806;SDS011;11065;50.786;7.840;2023-07-30T06:05:46;3.63;;;1.60;;
21806;SDS011;11065;50.786;7.840;2023-07-30T06:08:14;2.73;;;1.37;;
21806;SDS011;11065;50.786;7.840;2023-07-30T06:10:42;2.73;;;1.47;;
21806;SDS011;11065;50.786;7.840;2023-07-30T06:13:11;3.17;;;1.70;;
21806;SDS011;11065;50.786;7.840;2023-07-30T06:15:39;2.90;;;1.60;;
21806;SDS011;11065;50.786;7.840;2023-07-30T06:18:07;4.03;;;1.63;;
21806;SDS011;11065;50.786;7.840;2023-07-30T06:20:36;3.20;;;1.50;;
21806;SDS011;11065;50.786;7.840;2023-07-30T06:23:03;2.47;;;1.50;;
21806;SDS011;11065;50.786;7.840;2023-07-30T06:25:31;3.53;;;1.80;;
21806;SDS011;11065;50.786;7.840;2023-07-30T06:27:59;2.60;;;1.40;;
21806;SDS011;11065;50.786;7.840;2023-07-30T06:30:29;3.60;;;1.57;;
21806;SDS011;11065;50.786;7.840;2023-07-30T06:32:57;2.73;;;1.50;;
21806;SDS011;11065;50.786;7.840;2023-07-30T06:35:25;2.30;;;1.27;;
21806;SDS011;11065;50.786;7.840;2023-07-30T06:37:53;3.00;;;1.17;;
21806;SDS011;11065;50.786;7.840;2023-07-30T06:40:21;4.17;;;1.30;;
21806;SDS011;11065;50.786;7.840;2023-07-30T06:42:49;5.67;;;1.30;;
21806;SDS011;11065;50.786;7.840;2023-07-30T06:45:17;3.30;;;1.33;;
21806;SDS011;11065;50.786;7.840;2023-07-30T06:47:46;3.20;;;1.40;;
21806;SDS011;11065;50.786;7.840;2023-07-30T06:50:15;2.23;;;1.00;;
21806;SDS011;11065;50.786;7.840;2023-07-30T06:52:43;5.63;;;1.40;;
21806;SDS011;11065;50.786;7.840;2023-07-30T06:55:10;3.53;;;1.53;;
21806;SDS011;11065;50.786;7.840;2023-07-30T06:57:38;2.93;;;1.40;;
21806;SDS011;11065;50.786;7.840;2023-07-30T07:00:07;2.40;;;1.00;;
21806;SDS011;11065;50.786;7.840;2023-07-30T07:02:35;6.03;;;1.53;;
21806;SDS011;11065;50.786;7.840;2023-07-30T07:05:05;2.30;;;1.50;;
21806;SDS011;11065;50.786;7.840;2023-07-30T07:07:33;3.03;;;1.03;;
21806;SDS011;11065;50.786;7.840;2023-07-30T07:10:01;3.33;;;1.30;;
21806;SDS011;11065;50.786;7.840;2023-07-30T07:12:29;3.50;;;1.10;;
21806;SDS011;11065;50.786;7.840;2023-07-30T07:14:57;5.00;;;1.20;;
21806;SDS011;11065;50.786;7.840;2023-07-30T07:17:27;4.77;;;1.33;;
21806;SDS011;11065;50.786;7.840;2023-07-30T07:19:56;3.73;;;1.23;;
21806;SDS011;11065;50.786;7.840;2023-07-30T07:22:25;3.17;;;1.23;;
21806;SDS011;11065;50.786;7.840;2023-07-30T07:24:53;2.47;;;1.10;;
21806;SDS011;11065;50.786;7.840;2023-07-30T07:27:21;3.17;;;1.33;;
21806;SDS011;11065;50.786;7.840;2023-07-30T07:29:50;4.83;;;1.57;;
21806;SDS011;11065;50.786;7.840;2023-07-30T07:32:18;3.00;;;1.27;;
21806;SDS011;11065;50.786;7.840;2023-07-30T07:34:46;3.00;;;1.10;;
21806;SDS011;11065;50.786;7.840;2023-07-30T07:37:15;3.13;;;1.13;;
21806;SDS011;11065;50.786;7.840;2023-07-30T07:39:46;3.87;;;1.40;;
21806;SDS011;11065;50.786;7.840;2023-07-30T07:42:14;4.27;;;1.40;;
21806;SDS011;11065;50.786;7.840;2023-07-30T07:44:42;2.40;;;1.20;;
21806;SDS011;11065;50.786;7.840;2023-07-30T07:47:12;3.97;;;1.37;;
21806;SDS011;11065;50.786;7.840;2023-07-30T07:49:40;4.47;;;1.63;;
21806;SDS011;11065;50.786;7.840;2023-07-30T07:52:08;3.10;;;1.53;;
21806;SDS011;11065;50.786;7.840;2023-07-30T07:54:35;3.40;;;1.20;;
21806;SDS011;11065;50.786;7.840;2023-07-30T07:57:05;4.43;;;1.50;;
21806;SDS011;11065;50.786;7.840;2023-07-30T07:59:33;4.97;;;1.47;;
21806;SDS011;11065;50.786;7.840;2023-07-30T08:02:01;6.17;;;1.70;;
21806;SDS011;11065;50.786;7.840;2023-07-30T08:04:29;3.00;;;1.17;;
21806;SDS011;11065;50.786;7.840;2023-07-30T08:06:57;3.63;;;1.30;;
21806;SDS011;11065;50.786;7.840;2023-07-30T08:09:32;3.90;;;1.30;;
21806;SDS011;11065;50.786;7.840;2023-07-30T08:12:00;3.77;;;1.33;;
21806;SDS011;11065;50.786;7.840;2023-07-30T08:14:30;5.67;;;1.87;;
21806;SDS011;11065;50.786;7.840;2023-07-30T08:16:58;3.30;;;1.20;;
21806;SDS011;11065;50.786;7.840;2023-07-30T08:19:26;3.57;;;1.10;;
21806;SDS011;11065;50.786;7.840;2023-07-30T08:21:54;3.40;;;1.50;;
21806;SDS011;11065;50.786;7.840;2023-07-30T08:24:23;3.00;;;1.30;;
21806;SDS011;11065;50.786;7.840;2023-07-30T08:26:51;3.23;;;1.33;;
21806;SDS011;11065;50.786;7.840;2023-07-30T08:29:19;4.40;;;1.10;;
21806;SDS011;11065;50.786;7.840;2023-07-30T08:31:48;2.83;;;1.30;;
21806;SDS011;11065;50.786;7.840;2023-07-30T08:34:16;2.87;;;1.07;;
21806;SDS011;11065;50.786;7.840;2023-07-30T08:36:44;4.63;;;1.40;;
21806;SDS011;11065;50.786;7.840;2023-07-30T08:39:12;3.70;;;1.30;;
21806;SDS011;11065;50.786;7.840;2023-07-30T08:41:40;3.43;;;1.23;;
21806;SDS011;11065;50.786;7.840;2023-07-30T08:44:08;2.87;;;1.10;;
21806;SDS011;11065;50.786;7.840;2023-07-30T08:46:37;2.13;;;1.00;;
21806;SDS011;11065;50.786;7.840;2023-07-30T08:49:06;2.87;;;1.20;;
21806;SDS011;11065;50.786;7.840;2023-07-30T08:51:34;1.93;;;1.10;;
21806;SDS011;11065;50.786;7.840;2023-07-30T08:54:04;2.63;;;0.83;;
21806;SDS011;11065;50.786;7.840;2023-07-30T08:56:33;2.57;;;1.00;;
21806;SDS011;11065;50.786;7.840;2023-07-30T08:59:01;2.63;;;0.90;;
21806;SDS011;11065;50.786;7.840;2023-07-30T09:01:32;2.43;;;1.00;;
21806;SDS011;11065;50.786;7.840;2023-07-30T09:04:07;1.63;;;0.80;;
21806;SDS011;11065;50.786;7.840;2023-07-30T09:06:35;3.10;;;1.10;;
21806;SDS011;11065;50.786;7.840;2023-07-30T09:09:04;1.77;;;0.83;;
21806;SDS011;11065;50.786;7.840;2023-07-30T09:11:34;3.17;;;0.97;;
21806;SDS011;11065;50.786;7.840;2023-07-30T09:14:02;2.23;;;0.97;;
21806;SDS011;11065;50.786;7.840;2023-07-30T09:16:30;2.03;;;0.77;;
21806;SDS011;11065;50.786;7.840;2023-07-30T09:18:58;3.50;;;0.93;;
21806;SDS011;11065;50.786;7.840;2023-07-30T09:21:31;3.30;;;1.00;;
21806;SDS011;11065;50.786;7.840;2023-07-30T09:24:02;1.53;;;0.70;;
21806;SDS011;11065;50.786;7.840;2023-07-30T09:26:39;2.73;;;1.03;;
21806;SDS011;11065;50.786;7.840;2023-07-30T09:29:09;1.43;;;0.73;;
21806;SDS011;11065;50.786;7.840;2023-07-30T09:31:47;1.97;;;0.93;;
21806;SDS011;11065;50.786;7.840;2023-07-30T09:34:17;2.20;;;0.70;;
21806;SDS011;11065;50.786;7.840;2023-07-30T09:36:47;1.80;;;0.70;;
21806;SDS011;11065;50.786;7.840;2023-07-30T09:39:19;1.57;;;0.87;;
21806;SDS011;11065;50.786;7.840;2023-07-30T09:41:48;4.60;;;1.10;;
21806;SDS011;11065;50.786;7.840;2023-07-30T09:44:17;1.47;;;0.90;;
21806;SDS011;11065;50.786;7.840;2023-07-30T09:46:46;2.23;;;1.10;;
21806;SDS011;11065;50.786;7.840;2023-07-30T09:49:16;3.83;;;1.30;;
21806;SDS011;11065;50.786;7.840;2023-07-30T09:51:45;2.90;;;1.00;;
21806;SDS011;11065;50.786;7.840;2023-07-30T09:54:15;3.73;;;1.10;;
21806;SDS011;11065;50.786;7.840;2023-07-30T09:56:43;2.47;;;1.20;;
21806;SDS011;11065;50.786;7.840;2023-07-30T09:59:11;4.33;;;1.27;;
21806;SDS011;11065;50.786;7.840;2023-07-30T10:01:41;6.60;;;1.50;;
21806;SDS011;11065;50.786;7.840;2023-07-30T10:04:11;2.87;;;1.27;;
21806;SDS011;11065;50.786;7.840;2023-07-30T10:06:41;4.07;;;1.50;;
21806;SDS011;11065;50.786;7.840;2023-07-30T10:09:14;1.77;;;1.17;;
21806;SDS011;11065;50.786;7.840;2023-07-30T10:11:43;3.57;;;1.20;;
21806;SDS011;11065;50.786;7.840;2023-07-30T10:14:13;5.03;;;1.30;;
21806;SDS011;11065;50.786;7.840;2023-07-30T10:16:49;2.87;;;1.13;;
21806;SDS011;11065;50.786;7.840;2023-07-30T10:19:21;5.07;;;1.43;;
21806;SDS011;11065;50.786;7.840;2023-07-30T10:21:50;5.13;;;1.50;;
21806;SDS011;11065;50.786;7.840;2023-07-30T10:24:19;2.70;;;1.30;;
21806;SDS011;11065;50.786;7.840;2023-07-30T10:26:47;5.10;;;1.40;;
21806;SDS011;11065;50.786;7.840;2023-07-30T10:29:16;3.70;;;1.27;;
21806;SDS011;11065;50.786;7.840;2023-07-30T10:31:47;3.50;;;1.30;;
21806;SDS011;11065;50.786;7.840;2023-07-30T10:34:18;4.10;;;1.20;;
21806;SDS011;11065;50.786;7.840;2023-07-30T10:36:47;3.27;;;1.30;;
21806;SDS011;11065;50.786;7.840;2023-07-30T10:39:17;5.53;;;1.70;;
21806;SDS011;11065;50.786;7.840;2023-07-30T10:41:48;5.82;;;1.20;;
21806;SDS011;11065;50.786;7.840;2023-07-30T10:44:18;5.40;;;1.40;;
21806;SDS011;11065;50.786;7.840;2023-07-30T10:46:55;5.28;;;1.30;;
21806;SDS011;11065;50.786;7.840;2023-07-30T10:49:24;4.78;;;2.00;;
21806;SDS011;11065;50.786;7.840;2023-07-30T10:51:53;3.88;;;1.20;;
21806;SDS011;11065;50.786;7.840;2023-07-30T10:54:23;3.00;;;1.20;;
21806;SDS011;11065;50.786;7.840;2023-07-30T10:56:53;3.58;;;1.27;;
21806;SDS011;11065;50.786;7.840;2023-07-30T10:59:21;4.35;;;1.38;;
21806;SDS011;11065;50.786;7.840;2023-07-30T11:01:50;4.97;;;1.30;;
21806;SDS011;11065;50.786;7.840;2023-07-30T11:04:20;7.32;;;1.90;;
21806;SDS011;11065;50.786;7.840;2023-07-30T11:06:49;2.72;;;1.40;;
21806;SDS011;11065;50.786;7.840;2023-07-30T11:09:20;4.30;;;1.23;;
21806;SDS011;11065;50.786;7.840;2023-07-30T11:11:50;5.60;;;1.05;;
21806;SDS011;11065;50.786;7.840;2023-07-30T11:14:20;4.38;;;1.10;;
21806;SDS011;11065;50.786;7.840;2023-07-30T11:16:52;3.78;;;1.20;;
21806;SDS011;11065;50.786;7.840;2023-07-30T11:19:21;3.85;;;1.10;;
21806;SDS011;11065;50.786;7.840;2023-07-30T11:21:49;5.05;;;1.38;;
21806;SDS011;11065;50.786;7.840;2023-07-30T11:24:20;2.88;;;1.00;;
21806;SDS011;11065;50.786;7.840;2023-07-30T11:26:56;4.00;;;1.15;;
21806;SDS011;11065;50.786;7.840;2023-07-30T11:29:26;2.97;;;1.40;;
21806;SDS011;11065;50.786;7.840;2023-07-30T11:31:55;2.80;;;1.00;;
21806;SDS011;11065;50.786;7.840;2023-07-30T11:34:24;6.32;;;1.70;;
21806;SDS011;11065;50.786;7.840;2023-07-30T11:36:53;5.13;;;1.20;;
21806;SDS011;11065;50.786;7.840;2023-07-30T11:39:21;3.05;;;1.08;;
21806;SDS011;11065;50.786;7.840;2023-07-30T11:41:51;6.85;;;1.00;;
21806;SDS011;11065;50.786;7.840;2023-07-30T11:44:30;3.20;;;1.00;;
21806;SDS011;11065;50.786;7.840;2023-07-30T11:46:58;5.70;;;1.08;;
21806;SDS011;11065;50.786;7.840;2023-07-30T11:49:26;4.38;;;1.33;;
21806;SDS011;11065;50.786;7.840;2023-07-30T11:52:03;5.53;;;1.23;;
21806;SDS011;11065;50.786;7.840;2023-07-30T11:54:32;3.70;;;1.25;;
21806;SDS011;11065;50.786;7.840;2023-07-30T11:57:00;3.10;;;1.13;;
21806;SDS011;11065;50.786;7.840;2023-07-30T11:59:29;4.15;;;1.08;;
21806;SDS011;11065;50.786;7.840;2023-07-30T12:01:58;2.88;;;0.95;;
21806;SDS011;11065;50.786;7.840;2023-07-30T12:04:29;3.72;;;1.17;;
21806;SDS011;11065;50.786;7.840;2023-07-30T12:06:58;3.45;;;1.20;;
21806;SDS011;11065;50.786;7.840;2023-07-30T12:09:28;5.07;;;1.20;;
21806;SDS011;11065;50.786;7.840;2023-07-30T12:12:02;3.65;;;1.13;;
21806;SDS011;11065;50.786;7.840;2023-07-30T12:14:42;2.90;;;1.00;;
21806;SDS011;11065;50.786;7.840;2023-07-30T12:17:11;3.63;;;0.82;;
21806;SDS011;11065;50.786;7.840;2023-07-30T12:19:39;4.15;;;1.00;;
21806;SDS011;11065;50.786;7.840;2023-07-30T12:22:08;4.82;;;1.45;;
21806;SDS011;11065;50.786;7.840;2023-07-30T12:24:36;3.70;;;1.08;;
21806;SDS011;11065;50.786;7.840;2023-07-30T12:27:04;3.60;;;0.90;;
21806;SDS011;11065;50.786;7.840;2023-07-30T12:29:32;4.00;;;1.00;;
21806;SDS011;11065;50.786;7.840;2023-07-30T12:32:01;3.42;;;1.27;;
21806;SDS011;11065;50.786;7.840;2023-07-30T12:34:30;3.65;;;0.88;;
21806;SDS011;11065;50.786;7.840;2023-07-30T12:36:58;4.68;;;1.33;;
21806;SDS011;11065;50.786;7.840;2023-07-30T12:39:26;4.63;;;0.98;;
21806;SDS011;11065;50.786;7.840;2023-07-30T12:41:54;3.28;;;0.80;;
21806;SDS011;11065;50.786;7.840;2023-07-30T12:44:22;2.40;;;1.05;;
21806;SDS011;11065;50.786;7.840;2023-07-30T12:46:50;3.55;;;1.13;;
21806;SDS011;11065;50.786;7.840;2023-07-30T12:49:20;4.15;;;1.35;;
21806;SDS011;11065;50.786;7.840;2023-07-30T12:51:48;3.28;;;0.93;;
21806;SDS011;11065;50.786;7.840;2023-07-30T12:54:16;5.28;;;1.65;;
21806;SDS011;11065;50.786;7.840;2023-07-30T12:56:44;3.25;;;1.27;;
21806;SDS011;11065;50.786;7.840;2023-07-30T12:59:12;2.63;;;1.00;;
21806;SDS011;11065;50.786;7.840;2023-07-30T13:01:40;4.63;;;1.55;;
21806;SDS011;11065;50.786;7.840;2023-07-30T13:04:13;4.57;;;1.20;;
21806;SDS011;11065;50.786;7.840;2023-07-30T13:06:42;4.32;;;0.90;;
21806;SDS011;11065;50.786;7.840;2023-07-30T13:09:10;3.15;;;0.90;;
21806;SDS011;11065;50.786;7.840;2023-07-30T13:11:38;4.32;;;1.05;;
21806;SDS011;11065;50.786;7.840;2023-07-30T13:14:06;3.30;;;1.25;;
21806;SDS011;11065;50.786;7.840;2023-07-30T13:16:34;2.97;;;0.90;;
21806;SDS011;11065;50.786;7.840;2023-07-30T13:19:02;2.92;;;0.82;;
21806;SDS011;11065;50.786;7.840;2023-07-30T13:21:30;2.90;;;0.85;;
21806;SDS011;11065;50.786;7.840;2023-07-30T13:24:00;2.90;;;0.90;;
21806;SDS011;11065;50.786;7.840;2023-07-30T13:26:28;4.47;;;0.95;;
21806;SDS011;11065;50.786;7.840;2023-07-30T13:28:56;4.60;;;1.25;;
21806;SDS011;11065;50.786;7.840;2023-07-30T13:31:24;3.60;;;1.20;;
21806;SDS011;11065;50.786;7.840;2023-07-30T13:33:52;3.92;;;1.05;;
21806;SDS011;11065;50.786;7.840;2023-07-30T13:36:20;3.90;;;1.00;;
21806;SDS011;11065;50.786;7.840;2023-07-30T13:38:48;2.28;;;1.10;;
21806;SDS011;11065;50.786;7.840;2023-07-30T13:41:18;3.15;;;1.00;;
21806;SDS011;11065;50.786;7.840;2023-07-30T13:43:46;4.35;;;1.08;;
21806;SDS011;11065;50.786;7.840;2023-07-30T13:46:13;2.45;;;1.02;;
21806;SDS011;11065;50.786;7.840;2023-07-30T13:48:42;3.05;;;1.05;;
21806;SDS011;11065;50.786;7.840;2023-07-30T13:51:09;2.92;;;0.98;;
21806;SDS011;11065;50.786;7.840;2023-07-30T13:53:37;4.18;;;0.98;;
21806;SDS011;11065;50.786;7.840;2023-07-30T13:56:07;3.35;;;0.88;;
21806;SDS011;11065;50.786;7.840;2023-07-30T13:58:37;1.15;;;0.68;;
21806;SDS011;11065;50.786;7.840;2023-07-30T14:01:06;1.70;;;0.82;;
21806;SDS011;11065;50.786;7.840;2023-07-30T14:03:35;3.40;;;1.00;;
21806;SDS011;11065;50.786;7.840;2023-07-30T14:06:03;1.85;;;0.80;;
21806;SDS011;11065;50.786;7.840;2023-07-30T14:08:31;2.03;;;0.73;;
21806;SDS011;11065;50.786;7.840;2023-07-30T14:10:59;4.40;;;1.10;;
21806;SDS011;11065;50.786;7.840;2023-07-30T14:13:27;2.00;;;0.80;;
21806;SDS011;11065;50.786;7.840;2023-07-30T14:15:56;2.45;;;0.90;;
21806;SDS011;11065;50.786;7.840;2023-07-30T14:18:24;2.60;;;1.10;;
21806;SDS011;11065;50.786;7.840;2023-07-30T14:20:52;2.80;;;0.90;;
21806;SDS011;11065;50.786;7.840;2023-07-30T14:23:20;2.80;;;0.93;;
21806;SDS011;11065;50.786;7.840;2023-07-30T14:25:48;3.22;;;0.90;;
21806;SDS011;11065;50.786;7.840;2023-07-30T14:28:16;3.10;;;1.02;;
21806;SDS011;11065;50.786;7.840;2023-07-30T14:30:44;1.33;;;0.68;;
21806;SDS011;11065;50.786;7.840;2023-07-30T14:33:13;3.50;;;0.82;;
21806;SDS011;11065;50.786;7.840;2023-07-30T14:35:42;2.55;;;0.70;;
21806;SDS011;11065;50.786;7.840;2023-07-30T14:38:09;2.72;;;0.82;;
21806;SDS011;11065;50.786;7.840;2023-07-30T14:40:39;1.90;;;0.75;;
21806;SDS011;11065;50.786;7.840;2023-07-30T14:43:06;2.65;;;1.15;;
21806;SDS011;11065;50.786;7.840;2023-07-30T14:45:34;4.97;;;1.38;;
21806;SDS011;11065;50.786;7.840;2023-07-30T14:48:02;3.08;;;1.15;;
21806;SDS011;11065;50.786;7.840;2023-07-30T14:50:32;3.83;;;1.20;;
21806;SDS011;11065;50.786;7.840;2023-07-30T14:53:00;2.85;;;0.85;;
21806;SDS011;11065;50.786;7.840;2023-07-30T14:55:28;3.33;;;0.93;;
21806;SDS011;11065;50.786;7.840;2023-07-30T14:57:56;3.15;;;0.90;;